sensor_id;sensor_type;location;lat;lon;timestamp;P1;durP1;ratioP1;P2;durP2;ratioP2
53010;SDS011;42803;55.762;38.084;2022-09-12T00:01:14;7.03;;;3.92;;
53010;SDS011;42803;55.762;38.084;2022-09-12T00:03:47;12.95;;;5.45;;
53010;SDS011;42803;55.762;38.084;2022-09-12T00:06:20;7.97;;;4.18;;
53010;SDS011;42803;55.762;38.084;2022-09-12T00:08:53;12.43;;;5.25;;
53010;SDS011;42803;55.762;38.084;2022-09-12T00:11:23;7.68;;;5.13;;
53010;SDS011;42803;55.762;38.084;2022-09-12T00:13:54;11.13;;;5.43;;
53010;SDS011;42803;55.762;38.084;2022-09-12T00:16:25;7.88;;;4.80;;
53010;SDS011;42803;55.762;38.084;2022-09-12T00:18:58;8.93;;;4.15;;
53010;SDS011;42803;55.762;38.084;2022-09-12T00:21:27;9.70;;;4.82;;
53010;SDS011;42803;55.762;38.084;2022-09-12T00:23:56;15.52;;;4.70;;
53010;SDS011;42803;55.762;38.084;2022-09-12T00:26:25;10.02;;;4.38;;
53010;SDS011;42803;55.762;38.084;2022-09-12T00:28:54;6.10;;;3.97;;
53010;SDS011;42803;55.762;38.084;2022-09-12T00:31:24;6.60;;;4.03;;
53010;SDS011;42803;55.762;38.084;2022-09-12T00:33:54;6.47;;;4.05;;
53010;SDS011;42803;55.762;38.084;2022-09-12T00:36:28;10.77;;;4.63;;
53010;SDS011;42803;55.762;38.084;2022-09-12T00:38:57;22.17;;;5.18;;
53010;SDS011;42803;55.762;38.084;2022-09-12T00:41:28;7.53;;;4.15;;
53010;SDS011;42803;55.762;38.084;2022-09-12T00:43:59;10.45;;;4.25;;
53010;SDS011;42803;55.762;38.084;2022-09-12T00:46:34;10.88;;;4.53;;
53010;SDS011;42803;55.762;38.084;2022-09-12T00:49:10;9.85;;;4.40;;
53010;SDS011;42803;55.762;38.084;2022-09-12T00:51:43;7.60;;;4.63;;
53010;SDS011;42803;55.762;38.084;2022-09-12T00:54:18;9.18;;;4.95;;
53010;SDS011;42803;55.762;38.084;2022-09-12T00:56:50;9.27;;;4.60;;
53010;SDS011;42803;55.762;38.084;2022-09-12T00:59:23;12.95;;;4.97;;
53010;SDS011;42803;55.762;38.084;2022-09-12T01:01:56;9.68;;;4.82;;
53010;SDS011;42803;55.762;38.084;2022-09-12T01:04:25;9.52;;;5.00;;
53010;SDS011;42803;55.762;38.084;2022-09-12T01:06:57;10.95;;;4.82;;
53010;SDS011;42803;55.762;38.084;2022-09-12T01:09:26;9.55;;;4.45;;
53010;SDS011;42803;55.762;38.084;2022-09-12T01:11:55;9.73;;;4.38;;
53010;SDS011;42803;55.762;38.084;2022-09-12T01:14:24;8.52;;;4.65;;
53010;SDS011;42803;55.762;38.084;2022-09-12T01:16:53;10.18;;;4.70;;
53010;SDS011;42803;55.762;38.084;2022-09-12T01:22:22;11.48;;;4.72;;
53010;SDS011;42803;55.762;38.084;2022-09-12T01:25:09;9.25;;;5.00;;
53010;SDS011;42803;55.762;38.084;2022-09-12T01:28:00;11.20;;;4.97;;
53010;SDS011;42803;55.762;38.084;2022-09-12T01:30:48;10.93;;;4.90;;
53010;SDS011;42803;55.762;38.084;2022-09-12T01:36:31;10.52;;;4.65;;
53010;SDS011;42803;55.762;38.084;2022-09-12T01:39:06;10.00;;;4.85;;
53010;SDS011;42803;55.762;38.084;2022-09-12T01:41:43;9.63;;;5.20;;
53010;SDS011;42803;55.762;38.084;2022-09-12T01:44:22;11.50;;;5.15;;
53010;SDS011;42803;55.762;38.084;2022-09-12T01:47:01;8.60;;;4.78;;
53010;SDS011;42803;55.762;38.084;2022-09-12T01:49:36;9.23;;;4.80;;
53010;SDS011;42803;55.762;38.084;2022-09-12T01:52:09;10.82;;;5.55;;
53010;SDS011;42803;55.762;38.084;2022-09-12T01:54:44;8.45;;;4.80;;
53010;SDS011;42803;55.762;38.084;2022-09-12T01:57:18;12.10;;;4.60;;
53010;SDS011;42803;55.762;38.084;2022-09-12T01:59:53;10.80;;;4.97;;
53010;SDS011;42803;55.762;38.084;2022-09-12T02:02:29;10.68;;;4.97;;
53010;SDS011;42803;55.762;38.084;2022-09-12T02:05:02;7.22;;;4.10;;
53010;SDS011;42803;55.762;38.084;2022-09-12T02:07:36;8.52;;;4.65;;
53010;SDS011;42803;55.762;38.084;2022-09-12T02:10:08;10.52;;;4.88;;
53010;SDS011;42803;55.762;38.084;2022-09-12T02:12:41;8.55;;;5.22;;
53010;SDS011;42803;55.762;38.084;2022-09-12T02:17:48;8.10;;;4.90;;
53010;SDS011;42803;55.762;38.084;2022-09-12T02:20:19;9.98;;;4.97;;
53010;SDS011;42803;55.762;38.084;2022-09-12T02:23:13;9.63;;;5.68;;
53010;SDS011;42803;55.762;38.084;2022-09-12T02:25:47;11.40;;;6.13;;
53010;SDS011;42803;55.762;38.084;2022-09-12T02:30:54;13.43;;;6.63;;
53010;SDS011;42803;55.762;38.084;2022-09-12T02:33:31;11.07;;;6.32;;
53010;SDS011;42803;55.762;38.084;2022-09-12T02:36:10;13.27;;;6.57;;
53010;SDS011;42803;55.762;38.084;2022-09-12T02:38:44;10.00;;;6.20;;
53010;SDS011;42803;55.762;38.084;2022-09-12T02:41:16;13.30;;;7.05;;
53010;SDS011;42803;55.762;38.084;2022-09-12T02:43:47;12.77;;;6.63;;
53010;SDS011;42803;55.762;38.084;2022-09-12T02:46:20;9.75;;;6.32;;
53010;SDS011;42803;55.762;38.084;2022-09-12T02:48:54;10.35;;;6.13;;
53010;SDS011;42803;55.762;38.084;2022-09-12T02:51:24;13.95;;;7.13;;
53010;SDS011;42803;55.762;38.084;2022-09-12T02:53:54;10.77;;;7.20;;
53010;SDS011;42803;55.762;38.084;2022-09-12T02:56:25;14.15;;;8.32;;
53010;SDS011;42803;55.762;38.084;2022-09-12T02:58:57;13.07;;;7.03;;
53010;SDS011;42803;55.762;38.084;2022-09-12T03:01:34;11.48;;;6.53;;
53010;SDS011;42803;55.762;38.084;2022-09-12T03:04:22;12.30;;;7.22;;
53010;SDS011;42803;55.762;38.084;2022-09-12T03:07:08;13.88;;;7.32;;
53010;SDS011;42803;55.762;38.084;2022-09-12T03:09:43;15.27;;;7.75;;
53010;SDS011;42803;55.762;38.084;2022-09-12T03:12:27;14.73;;;7.55;;
53010;SDS011;42803;55.762;38.084;2022-09-12T03:15:11;11.13;;;6.53;;
53010;SDS011;42803;55.762;38.084;2022-09-12T03:17:54;13.77;;;7.85;;
53010;SDS011;42803;55.762;38.084;2022-09-12T03:20:37;14.13;;;7.85;;
53010;SDS011;42803;55.762;38.084;2022-09-12T03:23:22;13.38;;;7.78;;
53010;SDS011;42803;55.762;38.084;2022-09-12T03:25:58;13.27;;;7.70;;
53010;SDS011;42803;55.762;38.084;2022-09-12T03:28:31;14.37;;;8.00;;
53010;SDS011;42803;55.762;38.084;2022-09-12T03:31:10;17.38;;;8.23;;
53010;SDS011;42803;55.762;38.084;2022-09-12T03:33:40;14.75;;;7.75;;
53010;SDS011;42803;55.762;38.084;2022-09-12T03:36:13;14.63;;;9.05;;
53010;SDS011;42803;55.762;38.084;2022-09-12T03:38:44;15.15;;;7.72;;
53010;SDS011;42803;55.762;38.084;2022-09-12T03:41:13;12.52;;;7.82;;
53010;SDS011;42803;55.762;38.084;2022-09-12T03:43:42;13.90;;;7.93;;
53010;SDS011;42803;55.762;38.084;2022-09-12T03:46:11;15.25;;;8.15;;
53010;SDS011;42803;55.762;38.084;2022-09-12T03:48:40;14.38;;;7.80;;
53010;SDS011;42803;55.762;38.084;2022-09-12T03:51:09;13.55;;;7.53;;
53010;SDS011;42803;55.762;38.084;2022-09-12T03:53:40;13.05;;;7.47;;
53010;SDS011;42803;55.762;38.084;2022-09-12T03:56:10;12.77;;;7.90;;
53010;SDS011;42803;55.762;38.084;2022-09-12T03:58:39;12.90;;;7.68;;
53010;SDS011;42803;55.762;38.084;2022-09-12T04:01:09;9.98;;;6.05;;
53010;SDS011;42803;55.762;38.084;2022-09-12T04:03:40;12.57;;;8.02;;
53010;SDS011;42803;55.762;38.084;2022-09-12T04:06:10;10.48;;;6.55;;
53010;SDS011;42803;55.762;38.084;2022-09-12T04:08:43;12.32;;;6.90;;
53010;SDS011;42803;55.762;38.084;2022-09-12T04:11:15;13.85;;;7.38;;
53010;SDS011;42803;55.762;38.084;2022-09-12T04:13:45;10.57;;;6.38;;
53010;SDS011;42803;55.762;38.084;2022-09-12T04:16:14;14.75;;;7.80;;
53010;SDS011;42803;55.762;38.084;2022-09-12T04:18:44;12.77;;;7.60;;
53010;SDS011;42803;55.762;38.084;2022-09-12T04:21:15;14.27;;;6.85;;
53010;SDS011;42803;55.762;38.084;2022-09-12T04:23:47;11.00;;;5.97;;
53010;SDS011;42803;55.762;38.084;2022-09-12T04:26:17;13.52;;;6.95;;
53010;SDS011;42803;55.762;38.084;2022-09-12T04:28:47;10.73;;;6.13;;
53010;SDS011;42803;55.762;38.084;2022-09-12T04:31:21;10.05;;;6.18;;
53010;SDS011;42803;55.762;38.084;2022-09-12T04:33:52;13.75;;;7.82;;
53010;SDS011;42803;55.762;38.084;2022-09-12T04:36:21;10.50;;;6.20;;
53010;SDS011;42803;55.762;38.084;2022-09-12T04:38:53;16.95;;;6.70;;
53010;SDS011;42803;55.762;38.084;2022-09-12T04:41:23;11.57;;;6.10;;
53010;SDS011;42803;55.762;38.084;2022-09-12T04:43:54;12.02;;;6.18;;
53010;SDS011;42803;55.762;38.084;2022-09-12T04:46:26;10.43;;;6.03;;
53010;SDS011;42803;55.762;38.084;2022-09-12T04:49:20;12.30;;;6.88;;
53010;SDS011;42803;55.762;38.084;2022-09-12T04:51:49;11.18;;;5.70;;
53010;SDS011;42803;55.762;38.084;2022-09-12T04:54:22;12.23;;;7.03;;
53010;SDS011;42803;55.762;38.084;2022-09-12T04:56:51;11.60;;;6.38;;
53010;SDS011;42803;55.762;38.084;2022-09-12T04:59:21;11.88;;;6.72;;
53010;SDS011;42803;55.762;38.084;2022-09-12T05:01:50;14.82;;;7.47;;
53010;SDS011;42803;55.762;38.084;2022-09-12T05:04:19;10.93;;;6.70;;
53010;SDS011;42803;55.762;38.084;2022-09-12T05:06:48;11.18;;;6.65;;
53010;SDS011;42803;55.762;38.084;2022-09-12T05:09:17;11.43;;;6.47;;
53010;SDS011;42803;55.762;38.084;2022-09-12T05:11:48;11.07;;;6.95;;
53010;SDS011;42803;55.762;38.084;2022-09-12T05:17:02;11.32;;;5.88;;
53010;SDS011;42803;55.762;38.084;2022-09-12T05:19:32;11.50;;;6.10;;
53010;SDS011;42803;55.762;38.084;2022-09-12T05:22:01;9.38;;;6.13;;
53010;SDS011;42803;55.762;38.084;2022-09-12T05:24:31;13.18;;;6.80;;
53010;SDS011;42803;55.762;38.084;2022-09-12T05:27:02;10.30;;;6.55;;
53010;SDS011;42803;55.762;38.084;2022-09-12T05:29:31;11.43;;;6.28;;
53010;SDS011;42803;55.762;38.084;2022-09-12T05:32:02;11.30;;;6.10;;
53010;SDS011;42803;55.762;38.084;2022-09-12T05:34:31;11.23;;;7.03;;
53010;SDS011;42803;55.762;38.084;2022-09-12T05:37:00;9.70;;;6.30;;
53010;SDS011;42803;55.762;38.084;2022-09-12T05:39:29;13.30;;;7.00;;
53010;SDS011;42803;55.762;38.084;2022-09-12T05:41:58;14.27;;;6.85;;
53010;SDS011;42803;55.762;38.084;2022-09-12T05:44:28;12.20;;;6.53;;
53010;SDS011;42803;55.762;38.084;2022-09-12T05:46:57;12.15;;;7.13;;
53010;SDS011;42803;55.762;38.084;2022-09-12T05:49:26;10.23;;;6.10;;
53010;SDS011;42803;55.762;38.084;2022-09-12T05:51:56;7.55;;;5.45;;
53010;SDS011;42803;55.762;38.084;2022-09-12T05:54:25;10.52;;;5.55;;
53010;SDS011;42803;55.762;38.084;2022-09-12T05:56:57;11.40;;;5.70;;
53010;SDS011;42803;55.762;38.084;2022-09-12T05:59:28;8.85;;;5.57;;
53010;SDS011;42803;55.762;38.084;2022-09-12T06:01:57;8.52;;;5.43;;
53010;SDS011;42803;55.762;38.084;2022-09-12T06:04:26;9.40;;;5.22;;
53010;SDS011;42803;55.762;38.084;2022-09-12T06:06:55;7.60;;;5.30;;
53010;SDS011;42803;55.762;38.084;2022-09-12T06:09:24;8.43;;;5.32;;
53010;SDS011;42803;55.762;38.084;2022-09-12T06:11:54;9.57;;;6.15;;
53010;SDS011;42803;55.762;38.084;2022-09-12T06:14:23;7.18;;;5.30;;
53010;SDS011;42803;55.762;38.084;2022-09-12T06:16:53;9.63;;;5.80;;
53010;SDS011;42803;55.762;38.084;2022-09-12T06:19:22;10.55;;;6.20;;
53010;SDS011;42803;55.762;38.084;2022-09-12T06:21:53;12.18;;;5.60;;
53010;SDS011;42803;55.762;38.084;2022-09-12T06:24:22;10.85;;;6.07;;
53010;SDS011;42803;55.762;38.084;2022-09-12T06:26:51;7.75;;;4.95;;
53010;SDS011;42803;55.762;38.084;2022-09-12T06:29:21;9.00;;;5.63;;
53010;SDS011;42803;55.762;38.084;2022-09-12T06:31:50;8.30;;;5.18;;
53010;SDS011;42803;55.762;38.084;2022-09-12T06:34:20;11.50;;;5.65;;
53010;SDS011;42803;55.762;38.084;2022-09-12T06:36:49;11.70;;;6.03;;
53010;SDS011;42803;55.762;38.084;2022-09-12T06:39:18;11.60;;;5.93;;
53010;SDS011;42803;55.762;38.084;2022-09-12T06:41:49;12.43;;;5.03;;
53010;SDS011;42803;55.762;38.084;2022-09-12T06:44:32;8.88;;;5.78;;
53010;SDS011;42803;55.762;38.084;2022-09-12T06:47:01;13.65;;;5.65;;
53010;SDS011;42803;55.762;38.084;2022-09-12T06:49:31;9.43;;;5.70;;
53010;SDS011;42803;55.762;38.084;2022-09-12T06:52:00;12.98;;;5.43;;
53010;SDS011;42803;55.762;38.084;2022-09-12T06:54:30;13.93;;;7.13;;
53010;SDS011;42803;55.762;38.084;2022-09-12T06:57:02;10.55;;;6.38;;
53010;SDS011;42803;55.762;38.084;2022-09-12T06:59:31;10.85;;;6.20;;
53010;SDS011;42803;55.762;38.084;2022-09-12T07:02:00;12.77;;;6.68;;
53010;SDS011;42803;55.762;38.084;2022-09-12T07:04:31;14.55;;;7.55;;
53010;SDS011;42803;55.762;38.084;2022-09-12T07:07:03;11.95;;;6.70;;
53010;SDS011;42803;55.762;38.084;2022-09-12T07:09:32;13.18;;;7.10;;
53010;SDS011;42803;55.762;38.084;2022-09-12T07:12:01;16.23;;;8.10;;
53010;SDS011;42803;55.762;38.084;2022-09-12T07:14:30;16.48;;;7.60;;
53010;SDS011;42803;55.762;38.084;2022-09-12T07:16:59;19.63;;;8.07;;
53010;SDS011;42803;55.762;38.084;2022-09-12T07:19:28;18.35;;;9.02;;
53010;SDS011;42803;55.762;38.084;2022-09-12T07:21:58;20.33;;;9.20;;
53010;SDS011;42803;55.762;38.084;2022-09-12T07:24:27;17.48;;;8.57;;
53010;SDS011;42803;55.762;38.084;2022-09-12T07:26:56;20.50;;;8.55;;
53010;SDS011;42803;55.762;38.084;2022-09-12T07:29:25;22.83;;;10.25;;
53010;SDS011;42803;55.762;38.084;2022-09-12T07:32:04;22.48;;;10.05;;
53010;SDS011;42803;55.762;38.084;2022-09-12T07:34:33;19.15;;;10.38;;
53010;SDS011;42803;55.762;38.084;2022-09-12T07:37:04;24.92;;;11.05;;
53010;SDS011;42803;55.762;38.084;2022-09-12T07:39:33;22.98;;;11.38;;
53010;SDS011;42803;55.762;38.084;2022-09-12T07:42:04;23.15;;;12.13;;
53010;SDS011;42803;55.762;38.084;2022-09-12T07:44:34;26.30;;;12.18;;
53010;SDS011;42803;55.762;38.084;2022-09-12T07:47:03;21.65;;;11.45;;
53010;SDS011;42803;55.762;38.084;2022-09-12T07:49:32;23.30;;;11.65;;
53010;SDS011;42803;55.762;38.084;2022-09-12T07:52:02;24.20;;;12.27;;
53010;SDS011;42803;55.762;38.084;2022-09-12T07:54:32;27.33;;;12.70;;
53010;SDS011;42803;55.762;38.084;2022-09-12T07:57:02;25.77;;;12.07;;
53010;SDS011;42803;55.762;38.084;2022-09-12T07:59:31;23.90;;;12.32;;
53010;SDS011;42803;55.762;38.084;2022-09-12T08:02:19;24.50;;;12.20;;
53010;SDS011;42803;55.762;38.084;2022-09-12T08:04:48;20.55;;;11.40;;
53010;SDS011;42803;55.762;38.084;2022-09-12T08:07:17;23.58;;;11.18;;
53010;SDS011;42803;55.762;38.084;2022-09-12T08:09:48;21.75;;;11.70;;
53010;SDS011;42803;55.762;38.084;2022-09-12T08:12:17;24.88;;;11.55;;
53010;SDS011;42803;55.762;38.084;2022-09-12T08:14:46;27.05;;;12.63;;
53010;SDS011;42803;55.762;38.084;2022-09-12T08:17:15;23.58;;;11.63;;
53010;SDS011;42803;55.762;38.084;2022-09-12T08:19:44;25.42;;;10.98;;
53010;SDS011;42803;55.762;38.084;2022-09-12T08:22:14;20.70;;;12.05;;
53010;SDS011;42803;55.762;38.084;2022-09-12T08:24:44;23.92;;;12.38;;
53010;SDS011;42803;55.762;38.084;2022-09-12T08:27:15;22.83;;;11.68;;
53010;SDS011;42803;55.762;38.084;2022-09-12T08:29:44;20.17;;;9.73;;
53010;SDS011;42803;55.762;38.084;2022-09-12T08:32:12;27.17;;;11.35;;
53010;SDS011;42803;55.762;38.084;2022-09-12T08:34:42;23.17;;;10.27;;
53010;SDS011;42803;55.762;38.084;2022-09-12T08:37:10;18.80;;;9.90;;
53010;SDS011;42803;55.762;38.084;2022-09-12T08:39:39;20.55;;;10.60;;
53010;SDS011;42803;55.762;38.084;2022-09-12T08:42:10;22.20;;;10.48;;
53010;SDS011;42803;55.762;38.084;2022-09-12T08:44:59;26.48;;;11.57;;
53010;SDS011;42803;55.762;38.084;2022-09-12T08:47:37;18.08;;;11.82;;
53010;SDS011;42803;55.762;38.084;2022-09-12T08:50:12;18.20;;;9.43;;
53010;SDS011;42803;55.762;38.084;2022-09-12T08:52:51;23.15;;;10.70;;
53010;SDS011;42803;55.762;38.084;2022-09-12T08:55:30;22.35;;;10.57;;
53010;SDS011;42803;55.762;38.084;2022-09-12T09:00:40;23.40;;;12.10;;
53010;SDS011;42803;55.762;38.084;2022-09-12T09:03:25;20.80;;;10.48;;
53010;SDS011;42803;55.762;38.084;2022-09-12T09:06:06;18.90;;;9.77;;
53010;SDS011;42803;55.762;38.084;2022-09-12T09:08:46;21.33;;;9.82;;
53010;SDS011;42803;55.762;38.084;2022-09-12T09:11:28;17.77;;;9.20;;
53010;SDS011;42803;55.762;38.084;2022-09-12T09:14:13;23.25;;;10.23;;
53010;SDS011;42803;55.762;38.084;2022-09-12T09:17:19;23.20;;;10.65;;
53010;SDS011;42803;55.762;38.084;2022-09-12T09:19:54;19.85;;;9.93;;
53010;SDS011;42803;55.762;38.084;2022-09-12T09:22:33;19.13;;;10.02;;
53010;SDS011;42803;55.762;38.084;2022-09-12T09:25:10;17.75;;;9.48;;
53010;SDS011;42803;55.762;38.084;2022-09-12T09:27:51;19.00;;;10.20;;
53010;SDS011;42803;55.762;38.084;2022-09-12T09:30:26;19.55;;;10.10;;
53010;SDS011;42803;55.762;38.084;2022-09-12T09:32:56;19.35;;;9.77;;
53010;SDS011;42803;55.762;38.084;2022-09-12T09:35:31;15.45;;;8.57;;
53010;SDS011;42803;55.762;38.084;2022-09-12T09:38:17;17.15;;;9.43;;
53010;SDS011;42803;55.762;38.084;2022-09-12T09:40:55;19.23;;;9.68;;
53010;SDS011;42803;55.762;38.084;2022-09-12T09:43:42;18.73;;;9.52;;
53010;SDS011;42803;55.762;38.084;2022-09-12T09:46:12;14.80;;;8.82;;
53010;SDS011;42803;55.762;38.084;2022-09-12T09:48:43;19.52;;;9.05;;
53010;SDS011;42803;55.762;38.084;2022-09-12T09:51:16;16.83;;;9.23;;
53010;SDS011;42803;55.762;38.084;2022-09-12T09:53:49;16.10;;;9.45;;
53010;SDS011;42803;55.762;38.084;2022-09-12T09:56:25;16.88;;;8.20;;
53010;SDS011;42803;55.762;38.084;2022-09-12T09:58:56;21.58;;;9.45;;
53010;SDS011;42803;55.762;38.084;2022-09-12T10:01:26;16.63;;;8.18;;
53010;SDS011;42803;55.762;38.084;2022-09-12T10:03:56;16.48;;;7.85;;
53010;SDS011;42803;55.762;38.084;2022-09-12T10:06:28;15.82;;;8.80;;
53010;SDS011;42803;55.762;38.084;2022-09-12T10:09:05;14.50;;;8.25;;
53010;SDS011;42803;55.762;38.084;2022-09-12T10:11:45;16.77;;;8.50;;
53010;SDS011;42803;55.762;38.084;2022-09-12T10:17:25;16.92;;;8.07;;
53010;SDS011;42803;55.762;38.084;2022-09-12T10:20:01;16.17;;;8.25;;
53010;SDS011;42803;55.762;38.084;2022-09-12T10:22:47;19.52;;;8.07;;
53010;SDS011;42803;55.762;38.084;2022-09-12T10:25:17;14.20;;;8.30;;
53010;SDS011;42803;55.762;38.084;2022-09-12T10:27:51;14.00;;;7.72;;
53010;SDS011;42803;55.762;38.084;2022-09-12T10:30:22;15.40;;;8.15;;
53010;SDS011;42803;55.762;38.084;2022-09-12T10:32:58;11.88;;;7.53;;
53010;SDS011;42803;55.762;38.084;2022-09-12T10:35:41;15.82;;;7.85;;
53010;SDS011;42803;55.762;38.084;2022-09-12T10:38:16;13.88;;;7.22;;
53010;SDS011;42803;55.762;38.084;2022-09-12T10:40:55;15.15;;;7.75;;
53010;SDS011;42803;55.762;38.084;2022-09-12T10:43:26;16.45;;;8.18;;
53010;SDS011;42803;55.762;38.084;2022-09-12T10:46:19;13.73;;;7.03;;
53010;SDS011;42803;55.762;38.084;2022-09-12T10:51:42;16.85;;;7.70;;
53010;SDS011;42803;55.762;38.084;2022-09-12T10:54:11;16.90;;;7.50;;
53010;SDS011;42803;55.762;38.084;2022-09-12T10:56:42;13.50;;;6.38;;
53010;SDS011;42803;55.762;38.084;2022-09-12T10:59:27;14.93;;;7.05;;
53010;SDS011;42803;55.762;38.084;2022-09-12T11:02:11;14.35;;;7.05;;
53010;SDS011;42803;55.762;38.084;2022-09-12T11:04:48;12.32;;;6.95;;
53010;SDS011;42803;55.762;38.084;2022-09-12T11:07:35;17.33;;;6.90;;
53010;SDS011;42803;55.762;38.084;2022-09-12T11:10:14;17.20;;;7.13;;
53010;SDS011;42803;55.762;38.084;2022-09-12T11:12:55;14.68;;;7.03;;
53010;SDS011;42803;55.762;38.084;2022-09-12T11:15:43;15.95;;;6.68;;
53010;SDS011;42803;55.762;38.084;2022-09-12T11:18:28;11.60;;;5.65;;
53010;SDS011;42803;55.762;38.084;2022-09-12T11:21:16;14.38;;;6.40;;
53010;SDS011;42803;55.762;38.084;2022-09-12T11:24:00;14.45;;;6.80;;
53010;SDS011;42803;55.762;38.084;2022-09-12T11:26:59;11.27;;;5.47;;
53010;SDS011;42803;55.762;38.084;2022-09-12T11:29:44;8.20;;;5.03;;
53010;SDS011;42803;55.762;38.084;2022-09-12T11:35:44;7.70;;;5.03;;
53010;SDS011;42803;55.762;38.084;2022-09-12T11:38:35;9.13;;;5.03;;
53010;SDS011;42803;55.762;38.084;2022-09-12T11:41:16;9.52;;;5.07;;
53010;SDS011;42803;55.762;38.084;2022-09-12T11:43:53;9.57;;;5.35;;
53010;SDS011;42803;55.762;38.084;2022-09-12T11:46:31;8.35;;;5.05;;
53010;SDS011;42803;55.762;38.084;2022-09-12T11:49:04;10.55;;;4.55;;
53010;SDS011;42803;55.762;38.084;2022-09-12T11:51:43;9.50;;;4.65;;
53010;SDS011;42803;55.762;38.084;2022-09-12T11:57:22;7.70;;;4.10;;
53010;SDS011;42803;55.762;38.084;2022-09-12T11:59:57;7.75;;;4.47;;
53010;SDS011;42803;55.762;38.084;2022-09-12T12:02:34;6.68;;;3.90;;
53010;SDS011;42803;55.762;38.084;2022-09-12T12:05:14;5.63;;;3.60;;
53010;SDS011;42803;55.762;38.084;2022-09-12T12:07:50;8.20;;;5.13;;
53010;SDS011;42803;55.762;38.084;2022-09-12T12:10:24;8.68;;;4.13;;
53010;SDS011;42803;55.762;38.084;2022-09-12T12:12:59;8.20;;;4.30;;
53010;SDS011;42803;55.762;38.084;2022-09-12T12:15:30;5.32;;;3.65;;
53010;SDS011;42803;55.762;38.084;2022-09-12T12:18:03;6.68;;;3.92;;
53010;SDS011;42803;55.762;38.084;2022-09-12T12:20:34;7.35;;;4.43;;
53010;SDS011;42803;55.762;38.084;2022-09-12T12:23:05;7.15;;;3.63;;
53010;SDS011;42803;55.762;38.084;2022-09-12T12:25:49;4.95;;;3.22;;
53010;SDS011;42803;55.762;38.084;2022-09-12T12:31:07;6.57;;;3.72;;
53010;SDS011;42803;55.762;38.084;2022-09-12T12:33:51;7.35;;;3.67;;
53010;SDS011;42803;55.762;38.084;2022-09-12T12:48:42;5.32;;;3.63;;
53010;SDS011;42803;55.762;38.084;2022-09-12T12:51:41;6.93;;;4.57;;
53010;SDS011;42803;55.762;38.084;2022-09-12T12:54:32;5.78;;;3.17;;
53010;SDS011;42803;55.762;38.084;2022-09-12T12:57:30;5.97;;;3.42;;
53010;SDS011;42803;55.762;38.084;2022-09-12T13:03:08;4.65;;;3.38;;
53010;SDS011;42803;55.762;38.084;2022-09-12T13:05:46;6.10;;;3.63;;
53010;SDS011;42803;55.762;38.084;2022-09-12T13:08:25;5.72;;;3.50;;
53010;SDS011;42803;55.762;38.084;2022-09-12T13:10:58;4.13;;;3.20;;
53010;SDS011;42803;55.762;38.084;2022-09-12T13:13:30;4.63;;;3.40;;
53010;SDS011;42803;55.762;38.084;2022-09-12T13:16:03;4.70;;;3.20;;
53010;SDS011;42803;55.762;38.084;2022-09-12T13:18:39;6.40;;;2.95;;
53010;SDS011;42803;55.762;38.084;2022-09-12T13:21:11;3.10;;;2.65;;
53010;SDS011;42803;55.762;38.084;2022-09-12T13:23:43;4.72;;;3.03;;
53010;SDS011;42803;55.762;38.084;2022-09-12T13:26:26;4.10;;;3.17;;
53010;SDS011;42803;55.762;38.084;2022-09-12T13:29:10;7.32;;;3.22;;
53010;SDS011;42803;55.762;38.084;2022-09-12T13:31:40;7.88;;;3.33;;
53010;SDS011;42803;55.762;38.084;2022-09-12T13:34:16;3.65;;;2.63;;
53010;SDS011;42803;55.762;38.084;2022-09-12T13:36:51;5.93;;;2.90;;
53010;SDS011;42803;55.762;38.084;2022-09-12T13:39:37;3.95;;;2.85;;
53010;SDS011;42803;55.762;38.084;2022-09-12T13:45:17;5.75;;;3.25;;
53010;SDS011;42803;55.762;38.084;2022-09-12T13:47:49;4.85;;;2.67;;
53010;SDS011;42803;55.762;38.084;2022-09-12T13:50:27;4.80;;;2.50;;
53010;SDS011;42803;55.762;38.084;2022-09-12T13:52:59;4.00;;;3.00;;
53010;SDS011;42803;55.762;38.084;2022-09-12T13:55:32;5.10;;;2.90;;
53010;SDS011;42803;55.762;38.084;2022-09-12T13:58:03;5.15;;;3.22;;
53010;SDS011;42803;55.762;38.084;2022-09-12T14:00:33;5.40;;;2.78;;
53010;SDS011;42803;55.762;38.084;2022-09-12T14:03:13;4.88;;;2.88;;
53010;SDS011;42803;55.762;38.084;2022-09-12T14:06:12;6.80;;;2.38;;
53010;SDS011;42803;55.762;38.084;2022-09-12T14:08:42;3.97;;;3.03;;
53010;SDS011;42803;55.762;38.084;2022-09-12T14:11:19;3.67;;;2.60;;
53010;SDS011;42803;55.762;38.084;2022-09-12T14:13:55;4.82;;;2.33;;
53010;SDS011;42803;55.762;38.084;2022-09-12T14:16:25;5.85;;;2.78;;
53010;SDS011;42803;55.762;38.084;2022-09-12T14:18:55;4.72;;;2.65;;
53010;SDS011;42803;55.762;38.084;2022-09-12T14:21:31;5.57;;;2.60;;
53010;SDS011;42803;55.762;38.084;2022-09-12T14:24:03;4.35;;;2.85;;
53010;SDS011;42803;55.762;38.084;2022-09-12T14:26:35;5.70;;;2.95;;
53010;SDS011;42803;55.762;38.084;2022-09-12T14:29:06;4.65;;;2.80;;
53010;SDS011;42803;55.762;38.084;2022-09-12T14:31:38;6.03;;;3.20;;
53010;SDS011;42803;55.762;38.084;2022-09-12T14:34:10;6.28;;;2.95;;
53010;SDS011;42803;55.762;38.084;2022-09-12T14:36:46;7.28;;;2.92;;
53010;SDS011;42803;55.762;38.084;2022-09-12T14:39:18;3.65;;;2.40;;
53010;SDS011;42803;55.762;38.084;2022-09-12T14:41:59;3.88;;;2.78;;
53010;SDS011;42803;55.762;38.084;2022-09-12T14:44:31;8.02;;;3.47;;
53010;SDS011;42803;55.762;38.084;2022-09-12T14:47:10;7.35;;;2.83;;
53010;SDS011;42803;55.762;38.084;2022-09-12T14:49:43;4.65;;;2.33;;
53010;SDS011;42803;55.762;38.084;2022-09-12T14:52:22;4.05;;;2.72;;
53010;SDS011;42803;55.762;38.084;2022-09-12T14:54:56;5.85;;;2.67;;
53010;SDS011;42803;55.762;38.084;2022-09-12T14:57:34;4.57;;;2.85;;
53010;SDS011;42803;55.762;38.084;2022-09-12T15:00:14;8.20;;;3.15;;
53010;SDS011;42803;55.762;38.084;2022-09-12T15:02:53;4.85;;;2.78;;
53010;SDS011;42803;55.762;38.084;2022-09-12T15:05:23;5.28;;;3.30;;
53010;SDS011;42803;55.762;38.084;2022-09-12T15:07:59;4.28;;;2.70;;
53010;SDS011;42803;55.762;38.084;2022-09-12T15:10:30;6.57;;;3.10;;
53010;SDS011;42803;55.762;38.084;2022-09-12T15:13:03;3.47;;;2.65;;
53010;SDS011;42803;55.762;38.084;2022-09-12T15:15:41;7.60;;;3.03;;
53010;SDS011;42803;55.762;38.084;2022-09-12T15:18:11;5.35;;;3.10;;
53010;SDS011;42803;55.762;38.084;2022-09-12T15:20:41;4.82;;;3.05;;
53010;SDS011;42803;55.762;38.084;2022-09-12T15:23:16;5.60;;;2.95;;
53010;SDS011;42803;55.762;38.084;2022-09-12T15:25:49;5.65;;;2.60;;
53010;SDS011;42803;55.762;38.084;2022-09-12T15:28:22;4.57;;;3.05;;
53010;SDS011;42803;55.762;38.084;2022-09-12T15:30:53;4.55;;;2.55;;
53010;SDS011;42803;55.762;38.084;2022-09-12T15:33:24;4.40;;;2.85;;
53010;SDS011;42803;55.762;38.084;2022-09-12T15:35:53;3.80;;;2.72;;
53010;SDS011;42803;55.762;38.084;2022-09-12T15:38:24;3.78;;;2.85;;
53010;SDS011;42803;55.762;38.084;2022-09-12T15:40:53;2.92;;;2.50;;
53010;SDS011;42803;55.762;38.084;2022-09-12T15:43:23;4.28;;;2.90;;
53010;SDS011;42803;55.762;38.084;2022-09-12T15:45:53;6.57;;;3.00;;
53010;SDS011;42803;55.762;38.084;2022-09-12T15:48:24;3.97;;;2.60;;
53010;SDS011;42803;55.762;38.084;2022-09-12T15:51:33;5.65;;;3.17;;
53010;SDS011;42803;55.762;38.084;2022-09-12T15:54:04;4.30;;;2.65;;
53010;SDS011;42803;55.762;38.084;2022-09-12T15:56:33;6.07;;;2.70;;